createdAt,value
2022-08-01T00:01:15.252Z,119.80
2022-08-01T00:03:43.188Z,119.70
2022-08-01T00:06:10.655Z,118.50
2022-08-01T00:08:38.128Z,120.23
2022-08-01T00:11:05.553Z,119.07
2022-08-01T00:13:33.039Z,120.50
2022-08-01T00:15:59.999Z,119.67
2022-08-01T00:18:27.534Z,121.60
2022-08-01T00:20:54.999Z,120.17
2022-08-01T00:23:22.092Z,121.50
2022-08-01T00:25:50.651Z,121.97
2022-08-01T00:28:18.222Z,121.23
2022-08-01T00:30:45.752Z,122.07
2022-08-01T00:33:13.309Z,121.67
2022-08-01T00:35:40.831Z,122.00
2022-08-01T00:38:09.355Z,121.50
2022-08-01T00:40:40.817Z,119.53
2022-08-01T00:43:08.618Z,121.47
2022-08-01T00:45:36.069Z,119.77
2022-08-01T00:48:03.611Z,120.97
2022-08-01T00:50:31.292Z,121.97
2022-08-01T00:53:00.499Z,120.87
2022-08-01T00:55:29.231Z,120.70
2022-08-01T00:58:02.285Z,121.37
2022-08-01T01:00:53.081Z,122.07
2022-08-01T01:03:49.372Z,121.87
2022-08-01T01:07:06.208Z,122.70
2022-08-01T01:10:09.517Z,122.30
2022-08-01T01:13:08.101Z,122.87
2022-08-01T01:16:06.352Z,124.07
2022-08-01T01:18:46.728Z,122.17
2022-08-01T01:21:22.377Z,123.97
2022-08-01T01:24:27.185Z,123.00
2022-08-01T01:27:37.436Z,123.37
2022-08-01T01:30:06.983Z,124.30
2022-08-01T01:32:43.159Z,121.77
2022-08-01T01:35:31.093Z,123.90
2022-08-01T01:38:30.757Z,124.17
2022-08-01T01:40:59.916Z,122.93
2022-08-01T01:43:33.257Z,121.40
2022-08-01T01:46:06.403Z,122.40
2022-08-01T01:48:35.805Z,120.97
2022-08-01T01:51:04.462Z,121.67
2022-08-01T01:53:35.993Z,122.37
2022-08-01T01:56:04.475Z,121.77
2022-08-01T01:58:35.447Z,122.10
2022-08-01T02:01:04.260Z,122.67
2022-08-01T02:03:32.714Z,123.10
2022-08-01T02:06:02.541Z,122.80
2022-08-01T02:08:33.874Z,122.50
2022-08-01T02:11:20.492Z,121.93
2022-08-01T02:14:01.969Z,122.27
2022-08-01T02:16:35.009Z,122.70
2022-08-01T02:19:03.254Z,122.60
2022-08-01T02:21:51.182Z,123.30
2022-08-01T02:25:08.805Z,122.97
2022-08-01T02:27:44.764Z,122.30
2022-08-01T02:30:16.211Z,122.37
2022-08-01T02:32:50.854Z,122.37
2022-08-01T02:36:30.555Z,122.27
2022-08-01T02:38:27.703Z,121.27
2022-08-01T02:40:59.254Z,122.87
2022-08-01T02:43:28.071Z,121.80
2022-08-01T02:46:01.424Z,123.60
2022-08-01T02:48:31.230Z,123.17
2022-08-01T02:51:03.263Z,122.17
2022-08-01T02:53:43.943Z,122.33
2022-08-01T02:56:12.887Z,121.57
2022-08-01T02:58:42.832Z,122.57
2022-08-01T03:01:13.063Z,122.00
2022-08-01T03:03:41.455Z,121.67
2022-08-01T03:06:09.783Z,122.17
2022-08-01T03:08:38.432Z,122.67
2022-08-01T03:11:08.036Z,121.20
2022-08-01T03:13:36.003Z,122.57
2022-08-01T03:16:05.293Z,121.73
2022-08-01T03:18:34.580Z,122.40
2022-08-01T03:21:05.072Z,120.97
2022-08-01T03:23:38.280Z,121.77
2022-08-01T03:26:07.065Z,122.17
2022-08-01T03:28:34.576Z,122.50
2022-08-01T03:31:03.013Z,122.33
2022-08-01T03:33:31.144Z,121.67
2022-08-01T03:36:03.036Z,121.10
2022-08-01T03:38:36.056Z,121.70
2022-08-01T03:41:22.199Z,121.73
2022-08-01T03:44:00.644Z,122.37
2022-08-01T03:46:44.712Z,122.10
2022-08-01T03:49:23.081Z,121.37
2022-08-01T03:51:52.149Z,122.00
2022-08-01T03:54:41.581Z,121.17
2022-08-01T03:57:09.772Z,121.40
2022-08-01T03:59:59.737Z,121.43
2022-08-01T04:02:28.393Z,121.37
2022-08-01T04:04:56.548Z,121.47
2022-08-01T04:07:32.520Z,122.17
2022-08-01T04:10:00.563Z,121.30
2022-08-01T04:12:28.042Z,121.67
2022-08-01T04:14:55.566Z,121.30
2022-08-01T04:17:22.565Z,121.23
2022-08-01T04:19:50.634Z,121.17
2022-08-01T04:22:18.329Z,120.87
2022-08-01T04:24:56.948Z,121.40
2022-08-01T04:27:48.625Z,121.40
2022-08-01T04:30:24.522Z,121.40
2022-08-01T04:32:55.580Z,121.07
2022-08-01T04:36:01.968Z,121.37
2022-08-01T04:38:19.557Z,121.07
2022-08-01T04:40:47.263Z,121.67
2022-08-01T04:43:15.382Z,120.90
2022-08-01T04:45:44.922Z,121.23
2022-08-01T04:48:13.559Z,121.60
2022-08-01T04:50:42.978Z,121.07
2022-08-01T04:53:22.883Z,120.77
2022-08-01T04:55:50.621Z,122.10
2022-08-01T04:58:19.030Z,121.27
2022-08-01T05:00:47.839Z,120.33
2022-08-01T05:03:15.638Z,120.47
2022-08-01T05:05:43.203Z,119.83
2022-08-01T05:08:10.937Z,120.57
2022-08-01T05:10:38.550Z,120.17
2022-08-01T05:13:07.376Z,120.90
2022-08-01T05:15:37.542Z,119.17
2022-08-01T05:18:05.173Z,121.50
2022-08-01T05:20:34.748Z,122.30
2022-08-01T05:23:02.975Z,121.80
2022-08-01T05:25:56.068Z,122.90
2022-08-01T05:28:19.206Z,122.37
2022-08-01T05:30:46.754Z,125.63
2022-08-01T05:33:14.290Z,125.40
2022-08-01T05:35:47.978Z,124.73
2022-08-01T05:38:17.176Z,123.77
2022-08-01T05:40:44.650Z,126.27
2022-08-01T05:43:12.084Z,124.87
2022-08-01T05:45:39.263Z,123.90
2022-08-01T05:48:06.958Z,130.67
2022-08-01T05:50:34.843Z,129.13
2022-08-01T05:53:02.290Z,128.27
2022-08-01T05:55:29.916Z,130.20
2022-08-01T05:57:57.430Z,131.60
2022-08-01T06:00:24.999Z,131.67
2022-08-01T06:02:52.526Z,136.97
2022-08-01T06:05:20.078Z,139.57
2022-08-01T06:07:47.092Z,145.27
2022-08-01T06:10:14.623Z,141.07
2022-08-01T06:12:42.095Z,137.17
2022-08-01T06:15:09.978Z,131.33
2022-08-01T06:17:37.565Z,123.87
2022-08-01T06:20:07.147Z,122.20
2022-08-01T06:22:34.732Z,118.37
2022-08-01T06:25:02.348Z,119.40
2022-08-01T06:27:29.835Z,118.67
2022-08-01T06:29:57.931Z,117.87
2022-08-01T06:32:26.852Z,117.73
2022-08-01T06:34:56.205Z,117.00
2022-08-01T06:37:24.128Z,116.13
2022-08-01T06:39:51.943Z,116.60
2022-08-01T06:42:19.103Z,115.57
2022-08-01T06:44:46.560Z,116.20
2022-08-01T06:47:14.170Z,116.17
2022-08-01T06:49:41.640Z,116.13
2022-08-01T06:52:09.288Z,114.87
2022-08-01T06:54:37.079Z,116.03
2022-08-01T06:57:06.877Z,116.70
2022-08-01T06:59:34.522Z,115.67
2022-08-01T07:02:02.311Z,115.70
2022-08-01T07:04:29.828Z,114.73
2022-08-01T07:06:58.071Z,115.60
2022-08-01T07:09:25.741Z,115.87
2022-08-01T07:11:53.724Z,117.03
2022-08-01T07:14:22.393Z,115.63
2022-08-01T07:16:50.847Z,116.17
2022-08-01T07:19:19.031Z,114.77
2022-08-01T07:21:46.578Z,118.37
2022-08-01T07:24:19.531Z,115.50
2022-08-01T07:26:54.444Z,115.10
2022-08-01T07:29:26.925Z,115.50
2022-08-01T07:31:56.553Z,114.07
2022-08-01T07:34:25.724Z,115.47
2022-08-01T07:36:54.332Z,115.80
2022-08-01T07:39:21.857Z,116.13
2022-08-01T07:42:05.825Z,116.83
2022-08-01T07:44:35.065Z,116.90
2022-08-01T07:47:02.668Z,117.40
2022-08-01T07:49:30.018Z,118.07
2022-08-01T07:52:03.799Z,119.60
2022-08-01T07:54:34.410Z,119.20
2022-08-01T07:57:03.716Z,119.43
2022-08-01T07:59:31.661Z,121.80
2022-08-01T08:03:45.149Z,120.10
2022-08-01T08:06:12.741Z,120.40
2022-08-01T08:08:40.681Z,122.97
2022-08-01T08:11:08.617Z,125.00
2022-08-01T08:13:36.117Z,132.93
2022-08-01T08:16:03.884Z,128.57
2022-08-01T08:18:31.306Z,122.57
2022-08-01T08:21:01.315Z,122.83
2022-08-01T08:23:50.217Z,119.77
2022-08-01T08:26:18.215Z,117.37
2022-08-01T08:28:45.638Z,119.77
2022-08-01T08:31:24.973Z,120.33
2022-08-01T08:33:53.785Z,124.57
2022-08-01T08:36:21.437Z,125.23
2022-08-01T08:38:49.009Z,123.50
2022-08-01T08:41:20.956Z,120.47
2022-08-01T08:43:49.278Z,120.40
2022-08-01T08:46:17.033Z,119.00
2022-08-01T08:48:45.137Z,123.67
2022-08-01T08:51:14.174Z,121.07
2022-08-01T08:53:45.989Z,120.47
2022-08-01T08:56:15.062Z,118.37
2022-08-01T08:58:49.161Z,119.57
2022-08-01T09:01:18.498Z,117.70
2022-08-01T09:03:50.623Z,122.43
2022-08-01T09:06:18.078Z,120.83
2022-08-01T09:08:46.126Z,125.63
2022-08-01T09:11:18.689Z,122.90
2022-08-01T09:14:23.228Z,123.77
2022-08-01T09:17:11.816Z,119.87
2022-08-01T09:20:03.068Z,116.77
2022-08-01T09:22:39.783Z,117.60
2022-08-01T09:25:13.351Z,118.77
2022-08-01T09:27:46.350Z,118.93
2022-08-01T09:30:19.645Z,119.77
2022-08-01T09:33:18.215Z,119.77
2022-08-01T09:35:57.133Z,122.00
2022-08-01T09:38:29.195Z,128.20
2022-08-01T09:41:01.734Z,129.10
2022-08-01T09:43:32.424Z,129.93
2022-08-01T09:46:05.378Z,123.47
2022-08-01T09:48:33.606Z,120.23
2022-08-01T09:51:07.402Z,118.30
2022-08-01T09:53:51.951Z,118.20
2022-08-01T09:56:22.515Z,117.67
2022-08-01T09:58:59.333Z,118.60
2022-08-01T10:01:41.808Z,118.37
2022-08-01T10:04:12.502Z,119.63
2022-08-01T10:06:43.884Z,119.40
2022-08-01T10:09:14.987Z,118.87
2022-08-01T10:11:44.955Z,120.30
2022-08-01T10:14:18.178Z,118.87
2022-08-01T10:16:52.812Z,117.50
2022-08-01T10:19:25.532Z,117.50
2022-08-01T10:21:59.417Z,122.30
2022-08-01T10:24:30.602Z,117.73
2022-08-01T10:27:09.304Z,115.00
2022-08-01T10:30:05.816Z,116.87
2022-08-01T10:32:39.828Z,119.80
2022-08-01T10:35:15.207Z,120.67
2022-08-01T10:37:51.832Z,120.87
2022-08-01T10:40:37.066Z,118.67
2022-08-01T10:43:04.728Z,117.37
2022-08-01T10:45:32.736Z,115.77
2022-08-01T10:48:44.241Z,118.17
2022-08-01T10:51:18.300Z,122.63
2022-08-01T10:53:56.820Z,124.23
2022-08-01T10:56:38.960Z,120.60
2022-08-01T10:59:11.488Z,116.87
2022-08-01T11:01:45.091Z,118.83
2022-08-01T11:04:17.741Z,119.63
2022-08-01T11:06:55.665Z,118.57
2022-08-01T11:09:36.145Z,120.20
2022-08-01T11:12:13.208Z,118.83
2022-08-01T11:15:00.425Z,122.53
2022-08-01T11:17:42.878Z,121.87
2022-08-01T11:20:17.276Z,124.63
2022-08-01T11:23:06.097Z,121.10
2022-08-01T11:26:03.223Z,120.87
2022-08-01T11:28:32.789Z,121.87
2022-08-01T11:31:11.335Z,121.17
2022-08-01T11:33:45.973Z,120.90
2022-08-01T11:36:15.251Z,120.33
2022-08-01T11:38:47.036Z,118.07
2022-08-01T11:41:37.057Z,110.27
2022-08-01T11:44:14.711Z,109.57
2022-08-01T11:47:11.591Z,108.77
2022-08-01T11:49:50.311Z,111.07
2022-08-01T11:52:29.805Z,112.40
2022-08-01T11:55:10.146Z,112.87
2022-08-01T11:57:39.539Z,112.57
2022-08-01T12:00:16.846Z,110.97
2022-08-01T12:03:09.798Z,111.87
2022-08-01T12:05:43.053Z,113.43
2022-08-01T12:08:15.747Z,113.40
2022-08-01T12:10:52.097Z,114.43
2022-08-01T12:13:46.674Z,112.10
2022-08-01T12:16:17.292Z,112.23
2022-08-01T12:18:49.218Z,110.97
2022-08-01T12:21:21.443Z,110.27
2022-08-01T12:24:05.789Z,108.60
2022-08-01T12:26:54.651Z,110.40
2022-08-01T12:29:49.415Z,108.20
2022-08-01T12:32:41.167Z,107.80
2022-08-01T12:35:19.692Z,109.87
2022-08-01T12:38:04.843Z,110.97
2022-08-01T12:40:43.307Z,110.70
2022-08-01T12:43:28.250Z,110.87
2022-08-01T12:46:04.055Z,110.67
2022-08-01T12:48:35.783Z,111.70
2022-08-01T12:51:10.496Z,111.40
2022-08-01T12:53:42.594Z,112.07
2022-08-01T12:56:13.835Z,112.17
2022-08-01T12:58:48.706Z,112.00
2022-08-01T13:01:27.617Z,108.70
2022-08-01T13:04:07.056Z,109.83
2022-08-01T13:06:36.279Z,115.20
2022-08-01T13:09:14.526Z,111.00
2022-08-01T13:12:02.843Z,111.40
2022-08-01T13:14:31.762Z,111.40
2022-08-01T13:16:59.403Z,111.30
2022-08-01T13:19:46.089Z,112.50
2022-08-01T13:22:13.580Z,113.40
2022-08-01T13:24:41.100Z,113.07
2022-08-01T13:27:08.684Z,113.80
2022-08-01T13:29:39.271Z,115.70
2022-08-01T13:32:23.351Z,114.57
2022-08-01T13:35:06.645Z,114.13
2022-08-01T13:37:33.912Z,114.23
2022-08-01T13:40:01.383Z,113.17
2022-08-01T13:42:30.069Z,111.37
2022-08-01T13:44:57.642Z,112.40
2022-08-01T13:47:31.781Z,111.40
2022-08-01T13:50:03.204Z,109.00
2022-08-01T13:52:34.443Z,109.80
2022-08-01T13:55:02.709Z,112.97
2022-08-01T13:57:36.866Z,111.77
2022-08-01T14:00:10.280Z,113.07
2022-08-01T14:02:40.020Z,115.00
2022-08-01T14:05:07.904Z,117.03
2022-08-01T14:07:35.321Z,118.20
2022-08-01T14:10:18.794Z,120.37
2022-08-01T14:12:49.059Z,112.13
2022-08-01T14:15:38.835Z,111.63
2022-08-01T14:18:09.801Z,111.47
2022-08-01T14:20:40.665Z,111.17
2022-08-01T14:23:09.489Z,111.40
2022-08-01T14:26:02.978Z,111.40
2022-08-01T14:28:31.139Z,112.60
2022-08-01T14:30:59.381Z,112.80
2022-08-01T14:33:27.609Z,112.87
2022-08-01T14:36:05.775Z,112.60
2022-08-01T14:38:46.258Z,112.27
2022-08-01T14:41:15.478Z,111.17
2022-08-01T14:43:44.250Z,112.20
2022-08-01T14:46:13.207Z,111.57
2022-08-01T14:48:40.916Z,111.00
2022-08-01T14:51:08.456Z,111.30
2022-08-01T14:53:37.272Z,111.67
2022-08-01T14:56:09.070Z,110.67
2022-08-01T14:58:36.541Z,111.77
2022-08-01T15:01:05.317Z,110.97
2022-08-01T15:03:32.893Z,110.67
2022-08-01T15:06:00.469Z,111.93
2022-08-01T15:08:28.161Z,111.80
2022-08-01T15:10:55.666Z,112.60
2022-08-01T15:13:23.147Z,112.33
2022-08-01T15:15:50.210Z,114.40
2022-08-01T15:18:17.738Z,113.57
2022-08-01T15:20:45.998Z,114.07
2022-08-01T15:23:13.646Z,115.87
2022-08-01T15:25:42.195Z,114.80
2022-08-01T15:28:10.931Z,112.27
2022-08-01T15:30:39.075Z,112.43
2022-08-01T15:33:06.760Z,111.97
2022-08-01T15:35:34.287Z,112.57
2022-08-01T15:38:01.909Z,112.80
2022-08-01T15:40:29.584Z,113.10
2022-08-01T15:42:57.233Z,113.07
2022-08-01T15:45:46.995Z,112.30
2022-08-01T15:48:12.027Z,112.70
2022-08-01T15:50:39.594Z,112.90
2022-08-01T15:53:07.842Z,112.97
2022-08-01T15:55:39.015Z,110.57
2022-08-01T15:58:08.117Z,111.30
2022-08-01T16:00:39.114Z,111.77
2022-08-01T16:03:08.298Z,112.57
2022-08-01T16:05:41.070Z,111.37
2022-08-01T16:08:14.449Z,110.53
2022-08-01T16:10:42.665Z,111.40
2022-08-01T16:13:10.663Z,111.90
2022-08-01T16:15:42.063Z,113.37
2022-08-01T16:18:15.871Z,115.07
2022-08-01T16:20:45.889Z,116.33
2022-08-01T16:23:15.434Z,118.47
2022-08-01T16:25:44.777Z,119.90
2022-08-01T16:28:13.849Z,120.20
2022-08-01T16:30:51.012Z,121.63
2022-08-01T16:33:38.836Z,120.00
2022-08-01T16:36:17.529Z,120.40
2022-08-01T16:38:45.609Z,119.87
2022-08-01T16:41:20.004Z,119.37
2022-08-01T16:43:53.775Z,120.60
2022-08-01T16:46:24.647Z,118.37
2022-08-01T16:48:52.879Z,119.67
2022-08-01T16:51:20.409Z,117.57
2022-08-01T16:53:47.966Z,117.80
2022-08-01T16:56:15.445Z,122.00
2022-08-01T16:58:43.097Z,117.00
2022-08-01T17:01:59.394Z,115.97
2022-08-01T17:04:01.180Z,115.77
2022-08-01T17:06:30.087Z,115.97
2022-08-01T17:08:57.784Z,117.00
2022-08-01T17:11:25.217Z,117.17
2022-08-01T17:13:52.776Z,118.07
2022-08-01T17:16:20.392Z,117.70
2022-08-01T17:18:47.923Z,117.67
2022-08-01T17:21:15.572Z,117.10
2022-08-01T17:23:43.107Z,116.33
2022-08-01T17:26:10.165Z,115.50
2022-08-01T17:28:37.635Z,116.20
2022-08-01T17:31:10.447Z,116.07
2022-08-01T17:33:44.463Z,115.57
2022-08-01T17:36:15.043Z,116.30
2022-08-01T17:38:42.283Z,116.07
2022-08-01T17:41:10.208Z,116.47
2022-08-01T17:43:37.713Z,117.17
2022-08-01T17:46:05.173Z,118.30
2022-08-01T17:48:34.029Z,118.10
2022-08-01T17:51:02.945Z,118.40
2022-08-01T17:53:30.362Z,119.27
2022-08-01T17:56:00.524Z,118.67
2022-08-01T17:58:33.681Z,119.73
2022-08-01T18:01:20.705Z,120.33
2022-08-01T18:03:49.109Z,122.27
2022-08-01T18:06:23.376Z,122.27
2022-08-01T18:08:53.060Z,122.07
2022-08-01T18:11:27.467Z,123.53
2022-08-01T18:14:11.442Z,122.70
2022-08-01T18:16:39.017Z,120.90
2022-08-01T18:19:06.946Z,122.30
2022-08-01T18:21:38.552Z,122.10
2022-08-01T18:24:10.673Z,122.67
2022-08-01T18:26:38.622Z,122.97
2022-08-01T18:29:07.461Z,121.60
2022-08-01T18:31:35.685Z,122.07
2022-08-01T18:34:03.297Z,121.10
2022-08-01T18:36:33.228Z,120.73
2022-08-01T18:39:10.004Z,119.47
2022-08-01T18:41:39.083Z,119.10
2022-08-01T18:44:07.956Z,119.60
2022-08-01T18:46:38.203Z,119.00
2022-08-01T18:49:08.897Z,120.07
2022-08-01T18:51:43.515Z,120.77
2022-08-01T18:54:13.672Z,122.10
2022-08-01T18:56:43.078Z,122.07
2022-08-01T18:59:10.711Z,124.07
2022-08-01T19:01:39.618Z,123.10
2022-08-01T19:04:07.581Z,125.50
2022-08-01T19:06:35.488Z,124.77
2022-08-01T19:09:04.093Z,125.17
2022-08-01T19:11:34.000Z,125.30
2022-08-01T19:14:02.931Z,125.40
2022-08-01T19:16:31.006Z,123.07
2022-08-01T19:18:58.713Z,123.47
2022-08-01T19:21:26.243Z,122.60
2022-08-01T19:24:12.109Z,121.77
2022-08-01T19:26:45.843Z,120.27
2022-08-01T19:29:36.000Z,122.47
2022-08-01T19:32:07.073Z,122.20
2022-08-01T19:34:49.825Z,122.97
2022-08-01T19:37:17.772Z,121.77
2022-08-01T19:39:45.458Z,120.70
2022-08-01T19:42:13.387Z,120.63
2022-08-01T19:44:41.548Z,119.20
2022-08-01T19:47:09.847Z,118.93
2022-08-01T19:49:38.427Z,118.87
2022-08-01T19:52:06.659Z,118.40
2022-08-01T19:54:37.079Z,120.37
2022-08-01T19:57:08.116Z,119.20
2022-08-01T19:59:36.760Z,117.97
2022-08-01T20:02:05.524Z,119.10
2022-08-01T20:04:34.280Z,119.80
2022-08-01T20:07:03.061Z,119.97
2022-08-01T20:09:33.426Z,120.40
2022-08-01T20:12:01.100Z,120.07
2022-08-01T20:14:29.896Z,119.27
2022-08-01T20:16:57.815Z,119.77
2022-08-01T20:19:26.461Z,119.87
2022-08-01T20:22:04.417Z,120.57
2022-08-01T20:24:41.877Z,118.80
2022-08-01T20:27:13.047Z,120.27
2022-08-01T20:29:41.564Z,120.27
2022-08-01T20:32:09.373Z,120.17
2022-08-01T20:34:38.896Z,121.43
2022-08-01T20:37:12.798Z,121.27
2022-08-01T20:39:44.309Z,122.30
2022-08-01T20:42:13.986Z,122.40
2022-08-01T20:44:42.916Z,121.50
2022-08-01T20:47:10.695Z,120.80
2022-08-01T20:49:38.531Z,120.47
2022-08-01T20:52:11.367Z,120.17
2022-08-01T20:54:43.518Z,118.23
2022-08-01T20:57:23.321Z,119.67
2022-08-01T21:00:09.718Z,118.70
2022-08-01T21:03:09.063Z,120.47
2022-08-01T21:05:42.285Z,119.77
2022-08-01T21:08:42.034Z,120.30
2022-08-01T21:11:16.545Z,121.47
2022-08-01T21:13:47.949Z,123.57
2022-08-01T21:16:29.475Z,124.27
2022-08-01T21:19:19.186Z,126.27
2022-08-01T21:22:12.023Z,126.17
2022-08-01T21:24:58.046Z,127.77
2022-08-01T21:27:33.101Z,125.60
2022-08-01T21:30:07.815Z,124.37
2022-08-01T21:32:36.330Z,124.57
2022-08-01T21:35:06.023Z,124.30
2022-08-01T21:37:44.670Z,124.33
2022-08-01T21:40:24.187Z,123.03
2022-08-01T21:42:53.750Z,123.83
2022-08-01T21:45:24.817Z,123.30
2022-08-01T21:47:53.231Z,122.87
2022-08-01T21:50:22.163Z,122.50
2022-08-01T21:53:11.713Z,122.40
2022-08-01T21:56:42.839Z,122.57
2022-08-01T21:59:40.638Z,123.23
2022-08-01T22:02:39.174Z,123.00
2022-08-01T22:05:09.738Z,122.83
2022-08-01T22:07:53.543Z,123.47
2022-08-01T22:10:21.460Z,123.40
2022-08-01T22:12:49.275Z,124.00
2022-08-01T22:15:19.440Z,124.00
2022-08-01T22:17:53.767Z,124.40
2022-08-01T22:20:28.653Z,125.80
2022-08-01T22:22:56.523Z,124.87
2022-08-01T22:25:24.674Z,124.10
2022-08-01T22:28:07.901Z,124.20
2022-08-01T22:30:42.211Z,123.73
2022-08-01T22:33:16.077Z,121.77
2022-08-01T22:35:50.340Z,121.27
2022-08-01T22:38:20.856Z,121.17
2022-08-01T22:40:57.611Z,121.97
2022-08-01T22:44:04.256Z,121.60
2022-08-01T22:47:01.702Z,121.63
2022-08-01T22:49:44.418Z,121.97
2022-08-01T22:52:28.889Z,121.77
2022-08-01T22:55:07.556Z,121.87
2022-08-01T22:57:41.036Z,122.20
2022-08-01T23:00:12.420Z,122.10
2022-08-01T23:02:53.592Z,122.17
2022-08-01T23:05:26.661Z,122.27
2022-08-01T23:07:56.883Z,122.40
2022-08-01T23:10:29.040Z,123.33
2022-08-01T23:12:56.668Z,122.67
2022-08-01T23:15:24.700Z,123.27
2022-08-01T23:17:52.217Z,122.87
2022-08-01T23:20:19.701Z,122.97
2022-08-01T23:22:49.133Z,123.17
2022-08-01T23:25:17.868Z,122.80
2022-08-01T23:27:51.830Z,122.83
2022-08-01T23:30:35.193Z,123.40
2022-08-01T23:33:03.567Z,123.33
2022-08-01T23:35:31.716Z,123.00
2022-08-01T23:38:04.664Z,123.37
2022-08-01T23:40:34.662Z,123.63
2022-08-01T23:43:04.801Z,123.37
2022-08-01T23:45:58.480Z,125.00
2022-08-01T23:48:20.613Z,124.70
2022-08-01T23:50:48.108Z,125.40
2022-08-01T23:53:15.776Z,126.27
2022-08-01T23:55:44.269Z,126.97
2022-08-01T23:58:12.085Z,128.10
